Time;durP1;ratioP1;P1;durP2;ratioP2;P2;SDS_P1;SDS_P2;PMS_P1;PMS_P2;Temp;Humidity;BMP_temperature;BMP_pressure;BME280_temperature;BME280_humidity;BME280_pressure;Samples;Min_cycle;Max_cycle;Signal;HPM_P1;HPM_P2
2022/07/23 00:00:44;;;;;;;;;;;;;;;31.14;42.47;98831.25;2068018;28;19941;-56
2022/07/23 00:01:47;;;;;;;;;;;;;;;31.13;42.47;98824.94;2060156;28;20547;-60
2022/07/23 00:02:48;;;;;;;;;;;;;;;31.13;42.52;98822.22;2069873;28;19932;-56
2022/07/23 00:03:51;;;;;;;;;;;;;;;31.13;42.39;98829.63;2065326;28;19944;-55
2022/07/23 00:04:52;;;;;;;;;;;;;;;31.13;42.71;98829.63;2068342;28;20011;-58
2022/07/23 00:05:53;;;;;;;;;;;;;;;31.12;42.73;98827.97;2066663;28;20348;-53
2022/07/23 00:06:54;;;;;;;;;;;;;;;31.12;42.67;98827.97;2062406;28;19933;-59
2022/07/23 00:07:56;;;;;;;;;;;;;;;31.13;42.73;98829.63;2062117;28;20014;-57
2022/07/23 00:08:56;;;;;;;;;;;;;;;31.12;42.78;98822.47;2064843;28;20370;-55
2022/07/23 00:09:58;;;;;;;;;;;;;;;31.12;42.40;98820.59;2067706;28;19929;-60
2022/07/23 00:11:00;;;;;;;;;;;;;;;31.11;42.68;98821.66;2067783;28;19929;-57
2022/07/23 00:12:01;;;;;;;;;;;;;;;31.11;42.64;98821.66;2065561;28;20387;-57
2022/07/23 00:13:02;;;;;;;;;;;;;;;31.12;42.67;98817.00;2063535;28;20021;-58
2022/07/23 00:14:04;;;;;;;;;;;;;;;31.11;42.37;98816.19;2067229;28;19936;-54
2022/07/23 00:15:07;;;;;;;;;;;;;;;31.11;42.68;98815.38;2063308;28;22132;-57
2022/07/23 00:16:08;;;;;;;;;;;;;;;31.11;42.40;98815.38;2063512;28;19937;-59
2022/07/23 00:17:09;;;;;;;;;;;;;;;31.11;42.25;98818.94;2066323;28;19979;-59
2022/07/23 00:18:12;;;;;;;;;;;;;;;31.10;42.54;98811.00;2066576;28;20260;-53
2022/07/23 00:19:13;;;;;;;;;;;;;;;31.10;42.47;98820.03;2065672;28;19991;-59
2022/07/23 00:20:14;;;;;;;;;;;;;;;31.09;42.44;98812.94;2062887;28;19940;-54
2022/07/23 00:21:16;;;;;;;;;;;;;;;31.09;42.18;98814.84;2066607;28;19952;-57
2022/07/23 00:22:16;;;;;;;;;;;;;;;31.08;42.53;98805.81;2064987;28;19940;-52
2022/07/23 00:23:18;;;;;;;;;;;;;;;31.09;42.34;98812.94;2065301;28;20403;-60
2022/07/23 00:24:19;;;;;;;;;;;;;;;31.09;42.34;98812.09;2066691;28;22266;-60
2022/07/23 00:25:21;;;;;;;;;;;;;;;31.08;42.67;98816.75;2066288;28;20031;-55
2022/07/23 00:26:21;;;;;;;;;;;;;;;31.09;42.49;98812.09;2066907;28;20465;-54
2022/07/23 00:27:23;;;;;;;;;;;;;;;31.09;42.39;98814.84;2065167;28;19995;-59
2022/07/23 00:28:23;;;;;;;;;;;;;;;31.08;42.68;98810.47;2067641;28;19940;-60
2022/07/23 00:29:27;;;;;;;;;;;;;;;31.08;42.32;98811.28;2066067;28;21958;-60
2022/07/23 00:30:29;;;;;;;;;;;;;;;31.07;42.50;98809.66;2067844;28;20006;-56
2022/07/23 00:31:30;;;;;;;;;;;;;;;31.07;42.48;98806.09;2065931;28;19932;-56
2022/07/23 00:32:31;;;;;;;;;;;;;;;31.09;42.49;98812.09;2064751;28;20203;-58
2022/07/23 00:33:32;;;;;;;;;;;;;;;31.07;42.42;98806.09;2062219;28;19930;-60
2022/07/23 00:34:33;;;;;;;;;;;;;;;31.08;42.52;98810.47;2068453;28;20299;-56
2022/07/23 00:35:37;;;;;;;;;;;;;;;31.07;42.66;98806.09;2065278;28;21173;-57
2022/07/23 00:36:38;;;;;;;;;;;;;;;31.08;42.67;98813.22;2063658;28;20049;-56
2022/07/23 00:37:39;;;;;;;;;;;;;;;31.07;42.28;98808.84;2063711;28;19971;-59
2022/07/23 00:38:41;;;;;;;;;;;;;;;31.06;42.20;98810.72;2063760;28;19933;-55
2022/07/23 00:39:41;;;;;;;;;;;;;;;31.06;42.28;98805.25;2054724;28;20391;-58
2022/07/23 00:40:43;;;;;;;;;;;;;;;31.08;42.55;98810.47;2063074;28;20028;-55
2022/07/23 00:41:43;;;;;;;;;;;;;;;31.05;42.55;98800.88;2063421;28;19940;-58
2022/07/23 00:42:45;;;;;;;;;;;;;;;31.05;42.44;98806.38;2062337;28;20063;-56
2022/07/23 00:43:47;;;;;;;;;;;;;;;31.05;42.29;98795.41;2063905;28;19940;-58
2022/07/23 00:44:49;;;;;;;;;;;;;;;31.04;42.49;98802.00;2069113;28;19929;-59
2022/07/23 00:45:51;;;;;;;;;;;;;;;31.05;42.35;98800.06;2060773;28;19936;-57
2022/07/23 00:46:53;;;;;;;;;;;;;;;31.04;42.40;98799.25;2066920;28;19925;-59
2022/07/23 00:47:55;;;;;;;;;;;;;;;31.04;42.40;98796.53;2065614;28;19936;-58
2022/07/23 00:48:56;;;;;;;;;;;;;;;31.04;42.64;98801.19;2062876;28;19977;-57
2022/07/23 00:49:57;;;;;;;;;;;;;;;31.04;42.25;98798.44;2064522;28;19936;-51
2022/07/23 00:50:58;;;;;;;;;;;;;;;31.04;42.50;98799.25;2065921;28;19936;-55
2022/07/23 00:52:01;;;;;;;;;;;;;;;31.04;42.62;98798.44;2066234;28;19989;-60
2022/07/23 00:53:02;;;;;;;;;;;;;;;31.04;42.62;98795.72;2066061;28;19928;-60
2022/07/23 00:54:04;;;;;;;;;;;;;;;31.03;42.38;98789.38;2065000;28;20383;-52
2022/07/23 00:55:05;;;;;;;;;;;;;;;31.03;42.22;98794.88;2066827;28;20416;-59
2022/07/23 00:56:07;;;;;;;;;;;;;;;31.03;42.64;98794.06;2065484;28;19933;-57
2022/07/23 00:57:08;;;;;;;;;;;;;;;31.03;42.62;98794.06;2065453;28;19957;-55
2022/07/23 00:58:10;;;;;;;;;;;;;;;31.02;42.44;98789.69;2065786;28;22205;-55
2022/07/23 00:59:10;;;;;;;;;;;;;;;31.02;42.28;98789.69;2067135;28;19925;-57
2022/07/23 01:00:14;;;;;;;;;;;;;;;31.02;42.31;98785.03;2064816;28;19925;-53
2022/07/23 01:01:15;;;;;;;;;;;;;;;31.02;42.55;98795.16;2065152;28;19936;-58
2022/07/23 01:02:17;;;;;;;;;;;;;;;31.01;42.19;98793.50;2067256;28;19924;-53
2022/07/23 01:03:18;;;;;;;;;;;;;;;31.02;42.39;98800.63;2065474;28;19925;-51
2022/07/23 01:04:19;;;;;;;;;;;;;;;31.02;42.60;98800.63;2067539;28;19935;-61
2022/07/23 01:05:21;;;;;;;;;;;;;;;31.03;42.66;98799.53;2068593;28;23895;-56
2022/07/23 01:06:22;;;;;;;;;;;;;;;31.01;42.35;98791.59;2062915;28;19929;-61
2022/07/23 01:07:24;;;;;;;;;;;;;;;31.01;42.39;98793.50;2068492;28;20020;-52
2022/07/23 01:08:25;;;;;;;;;;;;;;;31.01;42.36;98793.50;2066251;28;20606;-53
2022/07/23 01:09:27;;;;;;;;;;;;;;;31.00;42.59;98798.16;2064574;28;20031;-57
2022/07/23 01:10:33;;;;;;;;;;;;;;;31.00;42.44;98802.84;2061850;28;19933;-58
2022/07/23 01:11:36;;;;;;;;;;;;;;;31.00;42.51;98798.16;2061701;28;19936;-57
2022/07/23 01:12:36;;;;;;;;;;;;;;;31.00;42.53;98798.16;2066250;28;21192;-55
2022/07/23 01:13:41;;;;;;;;;;;;;;;31.00;42.31;98805.56;2069235;28;19940;-53
2022/07/23 01:14:42;;;;;;;;;;;;;;;30.99;42.46;98799.28;2069279;28;19936;-58
2022/07/23 01:15:45;;;;;;;;;;;;;;;30.99;42.54;98795.72;2063545;28;19933;-59
2022/07/23 01:16:47;;;;;;;;;;;;;;;30.99;42.55;98798.47;2065100;28;19937;-60
2022/07/23 01:17:49;;;;;;;;;;;;;;;30.99;42.54;98793.00;2066193;28;19925;-59
2022/07/23 01:18:49;;;;;;;;;;;;;;;31.00;42.60;98794.63;2065932;28;19984;-60
2022/07/23 01:19:51;;;;;;;;;;;;;;;30.99;42.38;98795.72;2059876;28;19937;-60
2022/07/23 01:20:51;;;;;;;;;;;;;;;30.98;42.31;98791.34;2067370;28;19925;-53
2022/07/23 01:21:54;;;;;;;;;;;;;;;30.97;42.49;98790.53;2066127;28;24921;-56
2022/07/23 01:22:56;;;;;;;;;;;;;;;30.97;42.54;98793.25;2063321;28;19951;-56
2022/07/23 01:23:58;;;;;;;;;;;;;;;30.97;42.58;98786.97;2062090;28;19936;-56
2022/07/23 01:24:58;;;;;;;;;;;;;;;30.96;42.41;98788.88;2066073;28;19929;-58
2022/07/23 01:26:00;;;;;;;;;;;;;;;30.97;42.37;98793.25;2064896;28;20506;-58
2022/07/23 01:27:00;;;;;;;;;;;;;;;30.98;42.28;98794.06;2066488;28;19936;-55
2022/07/23 01:28:02;;;;;;;;;;;;;;;30.96;42.52;98791.63;2069565;28;20044;-54
2022/07/23 01:29:03;;;;;;;;;;;;;;;30.96;42.38;98791.63;2065535;28;19932;-58
2022/07/23 01:30:05;;;;;;;;;;;;;;;30.97;42.16;98798.72;2060827;28;22825;-53
2022/07/23 01:31:06;;;;;;;;;;;;;;;30.94;42.12;98786.41;2061704;28;19932;-60
2022/07/23 01:32:08;;;;;;;;;;;;;;;30.96;42.46;98793.56;2063114;28;20828;-56
2022/07/23 01:33:08;;;;;;;;;;;;;;;30.96;42.50;98793.56;2066435;28;20049;-59
2022/07/23 01:34:10;;;;;;;;;;;;;;;30.94;42.42;98789.16;2065991;28;19929;-56
2022/07/23 01:35:11;;;;;;;;;;;;;;;30.96;42.24;98791.63;2066477;28;20884;-55
2022/07/23 01:36:12;;;;;;;;;;;;;;;30.94;42.17;98794.63;2065225;28;19937;-50
2022/07/23 01:37:13;;;;;;;;;;;;;;;30.96;42.22;98793.56;2064319;28;19940;-56
2022/07/23 01:38:16;;;;;;;;;;;;;;;30.96;42.22;98793.56;2066253;28;19935;-57
2022/07/23 01:39:17;;;;;;;;;;;;;;;30.94;42.51;98785.59;2064504;28;19936;-57
2022/07/23 01:40:18;;;;;;;;;;;;;;;30.94;42.26;98794.63;2068611;28;20028;-53
2022/07/23 01:41:19;;;;;;;;;;;;;;;30.93;42.30;98801.22;2063030;28;19929;-58
2022/07/23 01:42:20;;;;;;;;;;;;;;;30.94;42.45;98800.13;2064471;28;20937;-58
2022/07/23 01:43:21;;;;;;;;;;;;;;;30.94;42.42;98799.31;2067652;28;19929;-54
2022/07/23 01:44:22;;;;;;;;;;;;;;;30.92;42.43;98796.88;2061462;28;19933;-56
2022/07/23 01:45:23;;;;;;;;;;;;;;;30.95;42.47;98800.94;2066790;28;21279;-57
2022/07/23 01:46:25;;;;;;;;;;;;;;;30.93;42.48;98801.22;2064098;28;20040;-52
2022/07/23 01:47:26;;;;;;;;;;;;;;;30.93;42.51;98803.97;2065753;28;20326;-58
2022/07/23 01:48:27;;;;;;;;;;;;;;;30.92;42.38;98796.88;2062444;28;20044;-57
2022/07/23 01:49:28;;;;;;;;;;;;;;;30.92;42.12;98791.38;2063929;28;19947;-56
2022/07/23 01:50:29;;;;;;;;;;;;;;;30.92;42.34;98796.88;2064347;28;21975;-57
2022/07/23 01:51:30;;;;;;;;;;;;;;;30.92;42.03;98799.59;2065335;28;19932;-57
2022/07/23 01:52:32;;;;;;;;;;;;;;;30.92;42.15;98796.88;2064819;28;19929;-56
2022/07/23 01:53:34;;;;;;;;;;;;;;;30.91;42.21;98799.88;2063323;28;19925;-61
2022/07/23 01:54:35;;;;;;;;;;;;;;;30.91;42.46;98805.34;2068993;28;19932;-56
2022/07/23 01:55:36;;;;;;;;;;;;;;;30.91;42.06;98800.69;2063794;28;19933;-60
2022/07/23 01:56:37;;;;;;;;;;;;;;;30.91;42.51;98802.59;2064548;28;20416;-53
2022/07/23 01:57:38;;;;;;;;;;;;;;;30.90;42.21;98812.75;2064308;28;19925;-57
2022/07/23 01:58:40;;;;;;;;;;;;;;;30.91;42.46;98810.81;2066717;28;19929;-55
2022/07/23 01:59:40;;;;;;;;;;;;;;;30.90;42.49;98804.53;2067183;28;19933;-56
2022/07/23 02:00:42;;;;;;;;;;;;;;;30.90;42.23;98810.00;2065748;28;19986;-50
2022/07/23 02:01:42;;;;;;;;;;;;;;;30.90;42.11;98810.00;2060119;28;19936;-56
2022/07/23 02:02:44;;;;;;;;;;;;;;;30.90;42.15;98810.00;2066633;28;19933;-51
2022/07/23 02:03:45;;;;;;;;;;;;;;;30.89;42.13;98811.09;2065386;28;19933;-51
2022/07/23 02:04:46;;;;;;;;;;;;;;;30.89;42.23;98810.28;2069044;28;20398;-54
2022/07/23 02:05:47;;;;;;;;;;;;;;;30.89;41.98;98807.53;2071950;28;19932;-53
2022/07/23 02:06:49;;;;;;;;;;;;;;;30.87;42.44;98809.72;2073213;28;20375;-55
2022/07/23 02:07:49;;;;;;;;;;;;;;;30.88;42.12;98812.19;2070994;28;19936;-53
2022/07/23 02:08:52;;;;;;;;;;;;;;;30.88;42.00;98806.72;2073077;28;19931;-55
2022/07/23 02:09:53;;;;;;;;;;;;;;;30.87;42.01;98810.56;2066149;28;19929;-54
2022/07/23 02:10:54;;;;;;;;;;;;;;;30.88;42.39;98816.88;2068567;28;19925;-58
2022/07/23 02:11:55;;;;;;;;;;;;;;;30.87;42.15;98818.78;2071453;28;21040;-56
2022/07/23 02:12:56;;;;;;;;;;;;;;;30.88;42.21;98812.19;2069460;28;19972;-53
2022/07/23 02:13:57;;;;;;;;;;;;;;;30.87;42.30;98812.47;2057583;28;20349;-55
2022/07/23 02:14:59;;;;;;;;;;;;;;;30.86;42.41;98810.84;2072972;28;19937;-51
2022/07/23 02:15:59;;;;;;;;;;;;;;;30.86;42.09;98811.66;2071851;28;19925;-56
2022/07/23 02:17:01;;;;;;;;;;;;;;;30.87;42.34;98809.72;2071683;28;19925;-57
2022/07/23 02:18:01;;;;;;;;;;;;;;;30.86;42.09;98816.31;2074201;28;19929;-56
2022/07/23 02:19:03;;;;;;;;;;;;;;;30.85;42.02;98815.50;2072552;28;20045;-51
2022/07/23 02:20:04;;;;;;;;;;;;;;;30.85;42.33;98812.75;2072178;28;19939;-56
2022/07/23 02:21:06;;;;;;;;;;;;;;;30.85;42.28;98812.75;2071623;28;21113;-49
2022/07/23 02:22:07;;;;;;;;;;;;;;;30.86;42.11;98817.13;2071277;28;19944;-55
2022/07/23 02:23:08;;;;;;;;;;;;;;;30.85;42.41;98811.94;2067269;28;19936;-57
2022/07/23 02:24:10;;;;;;;;;;;;;;;30.85;42.11;98812.75;2066003;28;20370;-56
2022/07/23 02:25:12;;;;;;;;;;;;;;;30.84;42.09;98811.13;2071890;28;19936;-53
2022/07/23 02:26:12;;;;;;;;;;;;;;;30.83;42.12;98814.97;2072106;28;20533;-54
2022/07/23 02:27:14;;;;;;;;;;;;;;;30.84;42.31;98811.13;2072544;28;19925;-49
2022/07/23 02:28:15;;;;;;;;;;;;;;;30.84;42.32;98813.88;2071866;28;19933;-51
2022/07/23 02:29:16;;;;;;;;;;;;;;;30.84;42.03;98813.03;2070409;28;19925;-48
2022/07/23 02:30:17;;;;;;;;;;;;;;;30.84;42.05;98810.28;2068662;28;19929;-48
2022/07/23 02:31:18;;;;;;;;;;;;;;;30.84;42.14;98813.88;2072377;28;19929;-48
2022/07/23 02:32:20;;;;;;;;;;;;;;;30.83;41.92;98804.00;2068565;28;20031;-47
2022/07/23 02:33:21;;;;;;;;;;;;;;;30.83;42.07;98806.75;2072275;28;20334;-50
2022/07/23 02:34:23;;;;;;;;;;;;;;;30.83;42.18;98806.75;2071362;28;19925;-49
2022/07/23 02:35:23;;;;;;;;;;;;;;;30.84;42.32;98808.41;2072744;28;19937;-50
2022/07/23 02:36:25;;;;;;;;;;;;;;;30.83;41.86;98803.19;2071230;28;19929;-47
2022/07/23 02:37:25;;;;;;;;;;;;;;;30.82;41.98;98805.13;2072676;28;19925;-50
2022/07/23 02:38:28;;;;;;;;;;;;;;;30.82;42.38;98807.84;2072063;28;20043;-48
2022/07/23 02:39:29;;;;;;;;;;;;;;;30.83;42.31;98812.22;2068031;28;19974;-51
2022/07/23 02:40:31;;;;;;;;;;;;;;;30.82;42.20;98816.06;2069810;28;19937;-51
2022/07/23 02:41:31;;;;;;;;;;;;;;;30.82;41.97;98818.81;2072746;28;20381;-51
2022/07/23 02:42:33;;;;;;;;;;;;;;;30.82;41.88;98810.59;2058709;28;19932;-47
2022/07/23 02:43:34;;;;;;;;;;;;;;;30.82;42.05;98816.06;2069658;28;19929;-51
2022/07/23 02:44:35;;;;;;;;;;;;;;;30.81;42.05;98811.66;2073051;28;20452;-50
2022/07/23 02:45:36;;;;;;;;;;;;;;;30.81;42.07;98814.41;2071834;28;19967;-51
2022/07/23 02:46:37;;;;;;;;;;;;;;;30.80;42.31;98804.56;2072488;28;19929;-51
2022/07/23 02:47:38;;;;;;;;;;;;;;;30.80;42.20;98815.53;2071763;28;20498;-49
2022/07/23 02:48:39;;;;;;;;;;;;;;;30.80;42.34;98814.72;2066285;28;19926;-49
2022/07/23 02:49:41;;;;;;;;;;;;;;;30.81;42.33;98819.06;2067714;28;19982;-49
2022/07/23 02:50:42;;;;;;;;;;;;;;;30.79;42.13;98811.13;2073344;28;20575;-50
2022/07/23 02:51:43;;;;;;;;;;;;;;;30.80;41.91;98818.25;2073024;28;20031;-48
2022/07/23 02:52:44;;;;;;;;;;;;;;;30.80;41.95;98809.22;2071246;28;20548;-52
2022/07/23 02:53:45;;;;;;;;;;;;;;;30.81;42.22;98816.34;2069719;28;20036;-49
2022/07/23 02:54:47;;;;;;;;;;;;;;;30.80;42.00;98814.72;2067544;28;19994;-50
2022/07/23 02:55:49;;;;;;;;;;;;;;;30.80;42.01;98817.44;2071807;28;19936;-50
2022/07/23 02:56:50;;;;;;;;;;;;;;;30.80;41.91;98815.53;2071598;28;19933;-50
2022/07/23 02:57:52;;;;;;;;;;;;;;;30.79;42.11;98810.31;2070487;28;19925;-49
2022/07/23 02:58:52;;;;;;;;;;;;;;;30.79;42.08;98807.56;2070865;28;20031;-51
2022/07/23 02:59:54;;;;;;;;;;;;;;;30.79;42.02;98813.03;2068082;28;19948;-48
2022/07/23 03:00:54;;;;;;;;;;;;;;;30.78;42.20;98812.19;2072269;28;19936;-50
2022/07/23 03:01:56;;;;;;;;;;;;;;;30.78;41.78;98812.19;2070516;28;19929;-50
2022/07/23 03:02:56;;;;;;;;;;;;;;;30.79;41.92;98810.31;2073221;28;19933;-51
2022/07/23 03:03:58;;;;;;;;;;;;;;;30.78;42.23;98794.97;2071046;28;20528;-48
2022/07/23 03:04:58;;;;;;;;;;;;;;;30.77;42.06;98805.09;2071634;28;19929;-51
2022/07/23 03:06:00;;;;;;;;;;;;;;;30.77;41.96;98805.09;2070490;28;20035;-47
2022/07/23 03:07:02;;;;;;;;;;;;;;;30.77;42.19;98798.81;2071207;28;20582;-50
2022/07/23 03:08:02;;;;;;;;;;;;;;;30.77;42.15;98804.28;2070601;28;20322;-47
2022/07/23 03:09:04;;;;;;;;;;;;;;;30.76;42.18;98802.63;2070011;28;19925;-51
2022/07/23 03:10:06;;;;;;;;;;;;;;;30.77;41.95;98810.56;2064839;28;19933;-48
2022/07/23 03:11:10;;;;;;;;;;;;;;;30.75;42.15;98804.56;2066724;28;19929;-48
2022/07/23 03:12:11;;;;;;;;;;;;;;;30.76;41.77;98811.69;2072085;28;20017;-50
2022/07/23 03:13:12;;;;;;;;;;;;;;;30.76;42.02;98806.22;2059391;28;19936;-51
2022/07/23 03:14:16;;;;;;;;;;;;;;;30.76;41.98;98814.41;2067846;28;19932;-47
2022/07/23 03:15:16;;;;;;;;;;;;;;;30.75;42.08;98815.50;2070915;28;19934;-50
2022/07/23 03:16:18;;;;;;;;;;;;;;;30.76;41.75;98817.16;2070137;28;19929;-51
2022/07/23 03:17:18;;;;;;;;;;;;;;;30.75;42.12;98814.69;2071257;28;19925;-50
2022/07/23 03:18:20;;;;;;;;;;;;;;;30.75;41.97;98818.25;2072995;28;20028;-49
2022/07/23 03:19:20;;;;;;;;;;;;;;;30.75;42.01;98823.72;2071100;28;19940;-50
2022/07/23 03:20:22;;;;;;;;;;;;;;;30.75;41.89;98820.97;2072709;28;20036;-49
2022/07/23 03:21:23;;;;;;;;;;;;;;;30.75;42.08;98822.91;2072151;28;19929;-50
2022/07/23 03:22:24;;;;;;;;;;;;;;;30.76;41.79;98827.28;2074206;28;20437;-50
2022/07/23 03:23:25;;;;;;;;;;;;;;;30.74;41.97;98827.56;2067648;28;19940;-49
2022/07/23 03:24:53;;;;;;;;;;;;;;;30.74;41.84;98822.09;2069177;28;19948;-48
2022/07/23 03:25:49;;;;;;;;;;;;;;;30.73;41.93;98823.19;2069590;28;20383;-50
2022/07/23 03:26:50;;;;;;;;;;;;;;;30.73;42.26;98831.41;2071574;28;19925;-50
2022/07/23 03:27:51;;;;;;;;;;;;;;;30.73;42.17;98823.19;2073309;28;20310;-49
2022/07/23 03:28:53;;;;;;;;;;;;;;;30.73;41.79;98823.19;2071579;28;19933;-49
2022/07/23 03:29:54;;;;;;;;;;;;;;;30.72;42.21;98821.53;2069680;28;19926;-49
2022/07/23 03:30:56;;;;;;;;;;;;;;;30.71;41.73;98823.47;2072562;28;19971;-50
2022/07/23 03:31:56;;;;;;;;;;;;;;;30.71;41.93;98819.91;2071099;28;19932;-49
2022/07/23 03:32:58;;;;;;;;;;;;;;;30.71;42.02;98826.19;2070530;28;20470;-50
2022/07/23 03:33:59;;;;;;;;;;;;;;;30.71;42.00;98826.19;2064920;28;20007;-51
2022/07/23 03:35:00;;;;;;;;;;;;;;;30.71;41.99;98826.19;2074061;28;19929;-49
2022/07/23 03:36:01;;;;;;;;;;;;;;;30.72;42.12;98824.28;2073225;28;19933;-49
2022/07/23 03:37:02;;;;;;;;;;;;;;;30.71;42.00;98828.94;2075168;28;19967;-51
2022/07/23 03:38:03;;;;;;;;;;;;;;;30.71;42.15;98830.88;2075153;28;19932;-52
2022/07/23 03:39:05;;;;;;;;;;;;;;;30.71;41.69;98833.59;2071116;28;19952;-48
2022/07/23 03:40:06;;;;;;;;;;;;;;;30.71;41.86;98833.59;2075214;28;20604;-49
2022/07/23 03:41:09;;;;;;;;;;;;;;;30.70;41.90;98835.53;2074271;28;19955;-48
2022/07/23 03:42:10;;;;;;;;;;;;;;;30.71;42.11;98839.09;2074286;28;19979;-49
2022/07/23 03:43:11;;;;;;;;;;;;;;;30.70;42.04;98837.41;2074962;28;19933;-49
2022/07/23 03:44:12;;;;;;;;;;;;;;;30.69;41.88;98836.59;2070912;28;19925;-48
2022/07/23 03:45:13;;;;;;;;;;;;;;;30.70;41.88;98840.16;2072579;28;19929;-48
2022/07/23 03:46:14;;;;;;;;;;;;;;;30.70;41.92;98841.00;2075755;28;19932;-48
2022/07/23 03:47:16;;;;;;;;;;;;;;;30.69;41.94;98836.59;2073322;28;19935;-48
2022/07/23 03:48:17;;;;;;;;;;;;;;;30.69;41.98;98847.56;2073656;28;20517;-47
2022/07/23 03:49:19;;;;;;;;;;;;;;;30.69;41.90;98844.00;2073144;28;19925;-50
2022/07/23 03:50:19;;;;;;;;;;;;;;;30.69;41.72;98841.28;2073178;28;19929;-48
2022/07/23 03:51:21;;;;;;;;;;;;;;;30.69;42.08;98846.75;2074085;28;19933;-52
2022/07/23 03:52:21;;;;;;;;;;;;;;;30.68;41.77;98840.44;2074121;28;20033;-49
2022/07/23 03:53:23;;;;;;;;;;;;;;;30.68;41.79;98839.63;2071626;28;20318;-48
2022/07/23 03:54:24;;;;;;;;;;;;;;;30.68;41.95;98845.13;2069742;28;19934;-51
2022/07/23 03:55:25;;;;;;;;;;;;;;;30.67;42.08;98838.81;2072048;28;20053;-48
2022/07/23 03:56:27;;;;;;;;;;;;;;;30.68;41.84;98839.63;2074162;28;19940;-47
2022/07/23 03:57:29;;;;;;;;;;;;;;;30.68;41.81;98845.13;2067661;28;19933;-48
2022/07/23 03:58:29;;;;;;;;;;;;;;;30.67;41.73;98837.97;2072839;28;19932;-50
2022/07/23 03:59:31;;;;;;;;;;;;;;;30.67;41.86;98840.72;2072453;28;20068;-51
2022/07/23 04:00:31;;;;;;;;;;;;;;;30.67;41.78;98843.47;2072316;28;19929;-48
2022/07/23 04:01:33;;;;;;;;;;;;;;;30.67;41.78;98840.72;2070211;28;20069;-50
2022/07/23 04:02:34;;;;;;;;;;;;;;;30.66;41.99;98839.09;2071036;28;19932;-48
2022/07/23 04:03:35;;;;;;;;;;;;;;;30.67;42.09;98843.47;2070955;28;19933;-48
2022/07/23 04:04:36;;;;;;;;;;;;;;;30.65;42.16;98845.69;2071719;28;20328;-49
2022/07/23 04:05:37;;;;;;;;;;;;;;;30.65;41.97;98841.00;2071096;28;19987;-47
2022/07/23 04:06:38;;;;;;;;;;;;;;;30.65;41.81;98845.69;2062914;28;20570;-50
2022/07/23 04:07:40;;;;;;;;;;;;;;;30.65;41.47;98849.22;2071345;28;19932;-56
2022/07/23 04:08:40;;;;;;;;;;;;;;;30.65;41.60;98856.63;2072521;28;20660;-50
2022/07/23 04:09:42;;;;;;;;;;;;;;;30.65;41.56;98848.41;2069365;28;20047;-49
2022/07/23 04:10:44;;;;;;;;;;;;;;;30.65;41.66;98856.63;2072378;28;20537;-55
2022/07/23 04:11:45;;;;;;;;;;;;;;;30.64;41.67;98852.22;2070108;28;19941;-52
2022/07/23 04:12:47;;;;;;;;;;;;;;;30.65;41.84;98862.09;2069718;28;19960;-50
2022/07/23 04:13:47;;;;;;;;;;;;;;;30.64;41.74;98852.22;2073000;28;20398;-54
2022/07/23 04:14:49;;;;;;;;;;;;;;;30.64;41.52;98854.97;2067589;28;19940;-51
2022/07/23 04:15:50;;;;;;;;;;;;;;;30.64;41.87;98854.97;2070866;28;20306;-51
2022/07/23 04:16:52;;;;;;;;;;;;;;;30.63;41.56;98858.81;2072517;28;20024;-48
2022/07/23 04:17:52;;;;;;;;;;;;;;;30.63;41.67;98865.09;2073919;28;19933;-49
2022/07/23 04:18:54;;;;;;;;;;;;;;;30.64;41.61;98860.44;2074179;28;19925;-50
2022/07/23 04:19:54;;;;;;;;;;;;;;;30.63;41.74;98861.56;2069648;28;19940;-53
2022/07/23 04:20:56;;;;;;;;;;;;;;;30.64;41.74;98865.91;2074164;28;19933;-54
2022/07/23 04:21:57;;;;;;;;;;;;;;;30.64;41.74;98871.41;2073070;28;20000;-53
2022/07/23 04:22:58;;;;;;;;;;;;;;;30.63;41.76;98864.28;2074899;28;20045;-50
2022/07/23 04:23:59;;;;;;;;;;;;;;;30.63;41.46;98864.28;2070348;28;19928;-56
2022/07/23 04:25:01;;;;;;;;;;;;;;;30.62;41.52;98865.38;2070074;28;19929;-49
2022/07/23 04:26:01;;;;;;;;;;;;;;;30.62;41.67;98868.94;2072892;28;19925;-48
2022/07/23 04:27:04;;;;;;;;;;;;;;;30.62;41.77;98868.09;2074091;28;19933;-51
2022/07/23 04:28:05;;;;;;;;;;;;;;;30.61;41.43;98870.03;2074212;28;20607;-48
2022/07/23 04:29:07;;;;;;;;;;;;;;;30.61;41.53;98863.75;2073465;28;19956;-50
2022/07/23 04:30:08;;;;;;;;;;;;;;;30.62;41.66;98873.56;2072811;28;19936;-49
2022/07/23 04:31:10;;;;;;;;;;;;;;;30.61;41.63;98871.94;2073130;28;19932;-49
2022/07/23 04:32:10;;;;;;;;;;;;;;;30.61;41.57;98869.22;2074009;28;19944;-47
2022/07/23 04:33:12;;;;;;;;;;;;;;;30.61;41.53;98867.28;2071124;28;20011;-51
2022/07/23 04:34:12;;;;;;;;;;;;;;;30.60;41.69;98865.66;2073026;28;19925;-50
2022/07/23 04:35:14;;;;;;;;;;;;;;;30.60;41.65;98873.88;2073679;28;19933;-52
2022/07/23 04:36:15;;;;;;;;;;;;;;;30.60;41.68;98870.31;2071402;28;19925;-51
2022/07/23 04:37:16;;;;;;;;;;;;;;;30.61;41.57;98880.97;2070140;28;20419;-51
2022/07/23 04:38:17;;;;;;;;;;;;;;;30.60;41.56;98879.34;2074106;28;20352;-49
2022/07/23 04:39:18;;;;;;;;;;;;;;;30.60;41.78;98876.59;2066690;28;20016;-50
2022/07/23 04:40:19;;;;;;;;;;;;;;;30.60;41.32;98873.06;2069703;28;21007;-48
2022/07/23 04:41:20;;;;;;;;;;;;;;;30.59;41.38;98874.13;2068563;28;20028;-49
2022/07/23 04:42:22;;;;;;;;;;;;;;;30.59;41.45;98872.25;2067743;28;19933;-52
2022/07/23 04:43:24;;;;;;;;;;;;;;;30.59;41.45;98871.41;2067146;28;20641;-49
2022/07/23 04:44:25;;;;;;;;;;;;;;;30.59;41.64;98877.72;2073410;28;19925;-49
2022/07/23 04:45:26;;;;;;;;;;;;;;;30.58;41.84;98872.50;2071539;28;19929;-50
2022/07/23 04:46:27;;;;;;;;;;;;;;;30.59;41.82;98876.88;2071369;28;19933;-48
2022/07/23 04:47:29;;;;;;;;;;;;;;;30.59;41.51;98880.47;2069137;28;19940;-49
2022/07/23 04:48:29;;;;;;;;;;;;;;;30.58;41.51;98883.47;2073486;28;19929;-51
2022/07/23 04:49:31;;;;;;;;;;;;;;;30.59;41.55;98880.47;2067525;28;19929;-52
2022/07/23 04:50:32;;;;;;;;;;;;;;;30.57;41.71;98877.16;2066596;28;19933;-50
2022/07/23 04:51:33;;;;;;;;;;;;;;;30.59;41.52;98883.19;2069673;28;23514;-48
2022/07/23 04:52:34;;;;;;;;;;;;;;;30.58;41.46;98872.50;2070212;28;19948;-47
2022/07/23 04:53:37;;;;;;;;;;;;;;;30.58;41.56;98872.50;2070335;28;20027;-51
2022/07/23 04:54:38;;;;;;;;;;;;;;;30.58;41.64;98875.25;2066752;28;19940;-48
2022/07/23 04:55:39;;;;;;;;;;;;;;;30.58;41.56;98878.78;2071412;28;20409;-47
2022/07/23 04:56:41;;;;;;;;;;;;;;;30.58;41.60;98869.78;2064116;28;19925;-52
2022/07/23 04:57:43;;;;;;;;;;;;;;;30.57;41.48;98868.16;2065470;28;19929;-50
2022/07/23 04:58:44;;;;;;;;;;;;;;;30.57;41.80;98865.41;2069312;28;20004;-58
2022/07/23 04:59:45;;;;;;;;;;;;;;;30.57;41.59;98868.97;2075967;28;19936;-51
2022/07/23 05:00:46;;;;;;;;;;;;;;;30.58;41.49;98867.03;2064137;28;19929;-54
2022/07/23 05:01:47;;;;;;;;;;;;;;;30.58;41.65;98862.38;2074338;28;19940;-50
2022/07/23 05:02:49;;;;;;;;;;;;;;;30.56;41.78;98864.56;2074988;28;20501;-52
2022/07/23 05:03:49;;;;;;;;;;;;;;;30.58;41.64;98867.03;2072357;28;19925;-51
2022/07/23 05:04:51;;;;;;;;;;;;;;;30.55;41.70;98862.94;2073586;28;19925;-53
2022/07/23 05:05:51;;;;;;;;;;;;;;;30.56;41.92;98864.56;2072701;28;19934;-53
2022/07/23 05:06:53;;;;;;;;;;;;;;;30.58;41.66;98875.25;2073549;28;19925;-51
2022/07/23 05:07:53;;;;;;;;;;;;;;;30.57;41.72;98868.16;2072253;28;19929;-54
2022/07/23 05:08:56;;;;;;;;;;;;;;;30.56;41.52;98867.28;2069841;28;19937;-50
2022/07/23 05:09:56;;;;;;;;;;;;;;;30.57;41.71;98865.41;2062554;28;19972;-49
2022/07/23 05:10:58;;;;;;;;;;;;;;;30.56;41.53;98867.28;2069657;28;19940;-50
2022/07/23 05:11:59;;;;;;;;;;;;;;;30.57;41.74;98868.16;2065075;28;20302;-53
2022/07/23 05:13:02;;;;;;;;;;;;;;;30.57;41.62;98859.94;2065099;28;19929;-52
2022/07/23 05:14:02;;;;;;;;;;;;;;;30.56;41.92;98870.03;2065464;28;19929;-50
2022/07/23 05:15:04;;;;;;;;;;;;;;;30.56;41.81;98872.78;2061928;28;20456;-49
2022/07/23 05:16:05;;;;;;;;;;;;;;;30.56;41.93;98875.50;2071591;28;19929;-49
2022/07/23 05:17:07;;;;;;;;;;;;;;;30.56;41.80;98869.22;2074151;28;19961;-51
2022/07/23 05:18:08;;;;;;;;;;;;;;;30.56;41.73;98878.25;2058518;28;20311;-51
2022/07/23 05:19:10;;;;;;;;;;;;;;;30.56;41.54;98880.16;2064399;28;19933;-51
2022/07/23 05:20:10;;;;;;;;;;;;;;;30.56;41.60;98877.44;2062389;28;19933;-53